Time;durP1;ratioP1;P1;durP2;ratioP2;P2;SDS_P1;SDS_P2;PMS_P1;PMS_P2;Temp;Humidity;BMP_temperature;BMP_pressure;BME280_temperature;BME280_humidity;BME280_pressure;Samples;Min_cycle;Max_cycle;Signal;HPM_P1;HPM_P2
2023/09/28 01:18:49;;;;;;;10.80;7.90;;;17.70;99.90;;;;;;5053463;28;20068;-71
2023/09/28 01:21:15;;;;;;;11.05;8.20;;;17.70;99.90;;;;;;5035269;28;20048;-71
2023/09/28 01:23:45;;;;;;;9.43;7.90;;;17.70;99.90;;;;;;5035410;28;20041;-71
2023/09/28 01:26:11;;;;;;;11.60;8.07;;;17.60;99.90;;;;;;5051894;28;20175;-70
2023/09/28 01:28:38;;;;;;;9.73;7.63;;;17.60;99.90;;;;;;5052059;28;20572;-70
2023/09/28 01:31:04;;;;;;;9.95;7.60;;;17.60;99.90;;;;;;5019239;28;20099;-71
2023/09/28 01:33:30;;;;;;;9.75;7.50;;;17.50;99.90;;;;;;5052054;28;20052;-69
2023/09/28 01:35:56;;;;;;;9.68;7.63;;;17.50;99.90;;;;;;5035165;28;20041;-70
2023/09/28 01:38:30;;;;;;;10.93;7.63;;;17.50;99.90;;;;;;5035114;28;20040;-70
2023/09/28 01:40:56;;;;;;;8.70;6.80;;;17.50;99.90;;;;;;5051498;28;20056;-70
2023/09/28 01:43:22;;;;;;;9.85;6.97;;;17.50;99.90;;;;;;5051588;28;20045;-71
2023/09/28 01:45:49;;;;;;;9.88;7.05;;;17.50;99.90;;;;;;5052136;28;20439;-70
2023/09/28 01:48:15;;;;;;;9.07;6.70;;;17.50;99.90;;;;;;5051613;28;20056;-70
2023/09/28 01:50:41;;;;;;;9.95;6.43;;;17.50;99.90;;;;;;5035503;28;20371;-70
2023/09/28 01:53:07;;;;;;;11.25;6.50;;;17.50;99.90;;;;;;5051869;28;20090;-71
2023/09/28 01:55:33;;;;;;;9.35;6.70;;;17.50;99.90;;;;;;5051882;28;20083;-72
2023/09/28 01:58:11;;;;;;;7.80;6.13;;;17.50;99.90;;;;;;5051678;28;20131;-71
2023/09/28 02:00:37;;;;;;;9.18;6.40;;;17.50;99.90;;;;;;5051742;28;20079;-70
2023/09/28 02:03:04;;;;;;;9.35;6.47;;;17.50;99.90;;;;;;5051405;28;20512;-72
2023/09/28 02:05:32;;;;;;;11.70;6.68;;;17.50;99.90;;;;;;5035697;28;20094;-71
2023/09/28 02:07:59;;;;;;;7.80;6.10;;;17.50;99.90;;;;;;5052432;28;20102;-70
2023/09/28 02:10:25;;;;;;;9.43;6.28;;;17.50;99.90;;;;;;5052591;28;20044;-71
2023/09/28 02:13:00;;;;;;;8.27;6.00;;;17.50;99.90;;;;;;5036155;28;20125;-71
2023/09/28 02:15:27;;;;;;;9.43;6.32;;;17.50;99.90;;;;;;5052310;28;20041;-70
2023/09/28 02:17:52;;;;;;;8.95;6.13;;;17.50;99.90;;;;;;5036066;28;20147;-70
2023/09/28 02:20:25;;;;;;;9.32;6.30;;;17.40;99.90;;;;;;5036569;28;20037;-70
2023/09/28 02:22:59;;;;;;;8.27;6.10;;;17.40;99.90;;;;;;5038955;28;20064;-70
2023/09/28 02:25:29;;;;;;;9.20;6.22;;;17.30;99.90;;;;;;5052488;28;20283;-71
2023/09/28 02:28:06;;;;;;;9.10;6.43;;;17.30;99.90;;;;;;5055838;28;20041;-72
2023/09/28 02:30:31;;;;;;;9.85;6.45;;;17.20;99.90;;;;;;5023290;28;20130;-71
2023/09/28 02:32:57;;;;;;;9.65;6.72;;;17.20;99.90;;;;;;5039214;28;20072;-71
2023/09/28 02:35:23;;;;;;;9.63;6.40;;;17.10;99.90;;;;;;5055567;28;20041;-71
2023/09/28 02:37:51;;;;;;;7.72;6.22;;;17.10;99.90;;;;;;5055439;28;20051;-71
2023/09/28 02:40:23;;;;;;;8.73;6.43;;;17.10;99.90;;;;;;5054886;28;20045;-71
2023/09/28 02:42:57;;;;;;;8.30;6.65;;;17.00;99.90;;;;;;5055246;28;20495;-70
2023/09/28 02:45:22;;;;;;;10.23;6.90;;;17.00;99.90;;;;;;5038740;28;20056;-70
2023/09/28 02:47:49;;;;;;;10.63;6.68;;;17.00;99.90;;;;;;5038465;28;20037;-70
2023/09/28 02:50:16;;;;;;;8.68;6.72;;;16.90;99.90;;;;;;5038049;28;20090;-71
2023/09/28 02:52:47;;;;;;;9.65;6.70;;;16.80;99.90;;;;;;5038276;28;20120;-71
2023/09/28 02:55:20;;;;;;;9.02;7.03;;;16.80;99.90;;;;;;5038086;28;20040;-71
2023/09/28 02:57:47;;;;;;;10.10;7.63;;;16.80;99.90;;;;;;5055231;28;20087;-71
2023/09/28 03:00:35;;;;;;;10.55;6.93;;;16.70;99.90;;;;;;5054783;28;20037;-70
2023/09/28 03:03:02;;;;;;;9.32;7.30;;;16.70;99.90;;;;;;5056405;28;20049;-70
2023/09/28 03:05:37;;;;;;;9.75;7.13;;;16.60;99.90;;;;;;5037691;28;20045;-71
2023/09/28 03:08:04;;;;;;;9.35;7.35;;;16.60;99.90;;;;;;5038787;28;20073;-70
2023/09/28 03:10:31;;;;;;;11.90;7.40;;;16.60;99.90;;;;;;5021263;28;20060;-71
2023/09/28 03:12:57;;;;;;;10.48;7.10;;;16.60;99.90;;;;;;5021330;28;20036;-70
2023/09/28 03:15:23;;;;;;;10.48;8.07;;;16.60;99.90;;;;;;5037707;28;20052;-66
2023/09/28 03:17:49;;;;;;;10.90;7.68;;;16.50;99.90;;;;;;5037081;28;20135;-65
2023/09/28 03:20:43;;;;;;;12.18;7.60;;;16.50;99.90;;;;;;5037297;28;20053;-66
2023/09/28 03:23:09;;;;;;;10.40;7.90;;;16.50;99.90;;;;;;5054041;28;20037;-65
2023/09/28 03:25:35;;;;;;;12.05;7.95;;;16.50;99.90;;;;;;5037339;28;20112;-65
2023/09/28 03:28:07;;;;;;;10.57;7.78;;;16.50;99.90;;;;;;5053946;28;20045;-65
2023/09/28 03:30:32;;;;;;;;;;;16.50;99.90;;;;;;5037971;28;20048;-67
2023/09/28 03:32:59;;;;;;;11.02;8.05;;;16.50;99.90;;;;;;5053601;28;19916;-66
2023/09/28 03:35:26;;;;;;;9.32;7.82;;;16.50;99.90;;;;;;5053681;28;20363;-64
2023/09/28 03:37:54;;;;;;;11.43;8.18;;;16.50;99.90;;;;;;5036721;28;20055;-65
2023/09/28 03:40:20;;;;;;;11.35;8.20;;;16.50;99.90;;;;;;5053738;28;20131;-66
2023/09/28 03:42:50;;;;;;;11.52;8.15;;;16.50;99.90;;;;;;5053447;28;20084;-65
2023/09/28 03:45:20;;;;;;;11.20;8.27;;;16.40;99.90;;;;;;5037210;28;20127;-65
2023/09/28 03:47:50;;;;;;;11.68;8.60;;;16.40;99.90;;;;;;5054444;28;20106;-65
2023/09/28 03:50:16;;;;;;;10.82;7.70;;;16.40;99.90;;;;;;5053588;28;20037;-64
2023/09/28 03:52:43;;;;;;;9.75;8.13;;;16.40;99.90;;;;;;5070153;28;20424;-65
2023/09/28 03:55:21;;;;;;;11.45;8.40;;;16.30;99.90;;;;;;5053099;28;20284;-66
2023/09/28 03:57:48;;;;;;;10.52;8.25;;;16.30;99.90;;;;;;5069756;28;20089;-64
2023/09/28 04:00:15;;;;;;;11.98;8.75;;;16.30;99.90;;;;;;5053403;28;20411;-65
2023/09/28 04:02:47;;;;;;;11.88;8.70;;;16.20;99.90;;;;;;5036391;28;20041;-65
2023/09/28 04:05:13;;;;;;;10.38;8.45;;;16.20;99.90;;;;;;5053029;28;20035;-66
2023/09/28 04:07:40;;;;;;;11.48;8.18;;;16.20;99.90;;;;;;5052856;28;20120;-65
2023/09/28 04:10:07;;;;;;;10.88;7.90;;;16.10;99.90;;;;;;5054053;28;20041;-64
2023/09/28 04:12:32;;;;;;;12.02;8.55;;;16.00;99.90;;;;;;5052725;28;20124;-65
2023/09/28 04:14:58;;;;;;;11.43;8.82;;;16.00;99.90;;;;;;5053002;28;20136;-65
2023/09/28 04:17:24;;;;;;;13.43;8.48;;;16.00;99.90;;;;;;5052504;28;20114;-65
2023/09/28 04:19:50;;;;;;;11.48;7.68;;;16.00;99.90;;;;;;5052660;28;20076;-65
2023/09/28 04:22:19;;;;;;;10.45;7.57;;;15.90;99.90;;;;;;5052733;28;20083;-66
2023/09/28 04:24:45;;;;;;;11.30;8.48;;;15.90;99.90;;;;;;5036098;28;20077;-66
2023/09/28 04:27:11;;;;;;;11.50;8.40;;;15.80;99.90;;;;;;5036279;28;20124;-66
2023/09/28 04:29:37;;;;;;;11.23;9.00;;;15.80;99.90;;;;;;5052703;28;20045;-65
2023/09/28 04:32:04;;;;;;;12.13;8.50;;;15.80;99.90;;;;;;5052985;28;20105;-66
2023/09/28 04:34:30;;;;;;;11.98;8.18;;;15.70;99.90;;;;;;5052328;28;20048;-65
2023/09/28 04:36:57;;;;;;;12.63;9.07;;;15.70;99.90;;;;;;5035939;28;20048;-66
2023/09/28 04:39:24;;;;;;;11.77;9.70;;;15.70;99.90;;;;;;5019805;28;20045;-66
2023/09/28 04:41:53;;;;;;;11.23;9.55;;;15.70;99.90;;;;;;5052294;28;20041;-64
2023/09/28 04:44:20;;;;;;;12.38;8.48;;;15.70;99.90;;;;;;5035888;28;20049;-65
2023/09/28 04:46:46;;;;;;;11.15;9.23;;;15.70;99.90;;;;;;5035764;28;20049;-66
2023/09/28 04:49:12;;;;;;;10.98;8.75;;;15.80;99.90;;;;;;5035358;28;20049;-68
2023/09/28 04:51:38;;;;;;;11.50;8.70;;;15.70;99.90;;;;;;5035639;28;20045;-66
2023/09/28 04:54:04;;;;;;;12.02;8.80;;;15.80;99.90;;;;;;5035574;28;20099;-65
2023/09/28 04:56:31;;;;;;;11.07;8.32;;;15.70;99.90;;;;;;5052035;28;20045;-66
2023/09/28 04:58:59;;;;;;;13.07;9.68;;;15.80;99.90;;;;;;5035675;28;20037;-66
2023/09/28 05:01:25;;;;;;;12.25;9.90;;;15.70;99.90;;;;;;5035636;28;20045;-66
2023/09/28 05:03:54;;;;;;;11.90;9.65;;;15.80;99.90;;;;;;5051999;28;20048;-65
2023/09/28 05:06:20;;;;;;;13.70;10.30;;;15.80;99.90;;;;;;5052037;28;20044;-66
2023/09/28 05:08:49;;;;;;;12.95;10.10;;;15.80;99.90;;;;;;5052138;28;20436;-65
2023/09/28 05:11:15;;;;;;;13.07;9.85;;;15.80;99.90;;;;;;5052201;28;20078;-64
2023/09/28 05:13:42;;;;;;;14.73;10.63;;;15.90;99.90;;;;;;5051877;28;20033;-65
2023/09/28 05:16:14;;;;;;;12.95;10.57;;;15.90;99.90;;;;;;5019055;28;20087;-65
2023/09/28 05:18:40;;;;;;;13.90;11.20;;;15.80;99.90;;;;;;5051542;28;20053;-66
2023/09/28 05:21:06;;;;;;;12.70;10.43;;;15.90;99.90;;;;;;5035236;28;20063;-65
2023/09/28 05:23:50;;;;;;;14.85;10.38;;;15.80;99.90;;;;;;5051958;28;20040;-65
2023/09/28 05:26:16;;;;;;;14.32;10.35;;;15.80;99.90;;;;;;5035358;28;20047;-66
2023/09/28 05:28:42;;;;;;;13.48;9.70;;;15.80;99.90;;;;;;5051691;28;20084;-66
2023/09/28 05:31:08;;;;;;;13.43;10.32;;;15.70;99.90;;;;;;5035022;28;20041;-66
2023/09/28 05:33:41;;;;;;;14.32;10.52;;;15.70;99.90;;;;;;5051670;28;20063;-65
2023/09/28 05:36:07;;;;;;;14.02;9.93;;;15.70;99.90;;;;;;5052743;28;20462;-71
2023/09/28 05:38:53;;;;;;;14.32;10.60;;;15.70;99.90;;;;;;5069030;28;20068;-70
2023/09/28 05:41:29;;;;;;;12.60;9.65;;;15.70;99.90;;;;;;5052463;28;20057;-71
2023/09/28 05:43:55;;;;;;;13.80;10.10;;;15.70;99.90;;;;;;5035713;28;20072;-71
2023/09/28 05:46:21;;;;;;;14.52;9.93;;;15.60;99.90;;;;;;5035552;28;20412;-71
2023/09/28 05:48:47;;;;;;;12.90;9.77;;;15.60;99.90;;;;;;5035411;28;20052;-71
2023/09/28 05:51:13;;;;;;;14.40;10.60;;;15.60;99.90;;;;;;5035657;28;20076;-71
2023/09/28 05:53:40;;;;;;;13.80;10.13;;;15.60;99.90;;;;;;5035409;28;20496;-71
2023/09/28 05:56:07;;;;;;;12.80;9.63;;;15.60;99.90;;;;;;5035931;28;20045;-71
2023/09/28 05:58:33;;;;;;;13.40;9.27;;;15.70;99.90;;;;;;5052034;28;20052;-71
2023/09/28 06:01:07;;;;;;;12.80;9.18;;;15.70;99.90;;;;;;5021939;28;20049;-70
2023/09/28 06:03:35;;;;;;;11.90;9.05;;;15.70;99.90;;;;;;5055598;28;20083;-71
2023/09/28 06:06:11;;;;;;;11.80;8.57;;;15.80;99.90;;;;;;5039258;28;20588;-70
2023/09/28 06:08:37;;;;;;;12.98;9.20;;;15.90;99.90;;;;;;5055390;28;20106;-71
2023/09/28 06:11:03;;;;;;;14.70;8.93;;;15.90;99.90;;;;;;5055639;28;20037;-72
2023/09/28 06:13:30;;;;;;;13.23;8.93;;;15.80;99.90;;;;;;5038634;28;20044;-70
2023/09/28 06:15:56;;;;;;;13.30;9.18;;;15.90;99.90;;;;;;5055297;28;20076;-71
2023/09/28 06:18:22;;;;;;;11.15;8.88;;;15.90;99.90;;;;;;5055204;28;20119;-72
2023/09/28 06:20:47;;;;;;;12.20;8.90;;;15.90;99.90;;;;;;5055254;28;20040;-71
2023/09/28 06:23:14;;;;;;;12.57;9.15;;;16.00;99.90;;;;;;5055557;28;20075;-70
2023/09/28 06:25:41;;;;;;;12.18;8.77;;;16.00;99.90;;;;;;5055558;28;20493;-70
2023/09/28 06:28:13;;;;;;;14.15;9.50;;;16.00;99.90;;;;;;5038751;28;20048;-71
2023/09/28 06:30:45;;;;;;;12.05;9.20;;;16.00;99.90;;;;;;5039374;28;20041;-71
2023/09/28 06:33:11;;;;;;;12.45;8.80;;;16.10;99.90;;;;;;5039407;28;20044;-70
2023/09/28 06:35:36;;;;;;;12.35;8.98;;;16.10;99.90;;;;;;5055069;28;20048;-70
2023/09/28 06:38:03;;;;;;;14.00;8.48;;;16.20;99.90;;;;;;5038605;28;20386;-70
2023/09/28 06:40:29;;;;;;;13.00;8.80;;;16.20;99.90;;;;;;5055099;28;20112;-70
2023/09/28 06:42:58;;;;;;;15.23;8.30;;;16.30;99.90;;;;;;5055113;28;20060;-71
2023/09/28 06:45:24;;;;;;;12.32;7.88;;;16.30;99.90;;;;;;5056551;28;20481;-71
2023/09/28 06:47:51;;;;;;;13.43;8.20;;;16.40;99.90;;;;;;5054674;28;20409;-71
2023/09/28 06:50:17;;;;;;;13.77;7.55;;;16.40;99.90;;;;;;5054937;28;20166;-72
2023/09/28 06:52:43;;;;;;;13.13;8.05;;;16.50;99.90;;;;;;5054899;28;20045;-71
2023/09/28 06:55:13;;;;;;;13.75;8.10;;;16.50;99.90;;;;;;5071228;28;20048;-72
2023/09/28 06:57:39;;;;;;;13.90;7.55;;;16.50;99.90;;;;;;5038312;28;20095;-70
2023/09/28 07:00:08;;;;;;;13.55;7.68;;;16.60;99.90;;;;;;5037914;28;20041;-71
2023/09/28 07:02:35;;;;;;;12.10;7.13;;;16.60;99.90;;;;;;5021720;28;20080;-71
2023/09/28 07:05:03;;;;;;;12.27;6.57;;;16.60;99.90;;;;;;5037925;28;20045;-71
2023/09/28 07:07:30;;;;;;;13.43;6.72;;;16.70;99.90;;;;;;5037619;28;20041;-71
2023/09/28 07:09:56;;;;;;;14.05;6.55;;;16.70;99.90;;;;;;5054280;28;20072;-71
2023/09/28 07:12:22;;;;;;;16.45;6.57;;;16.80;99.90;;;;;;5053675;28;20041;-71
2023/09/28 07:14:48;;;;;;;14.55;6.45;;;16.80;99.90;;;;;;5053934;28;20039;-71
2023/09/28 07:17:14;;;;;;;15.75;6.60;;;16.80;99.90;;;;;;5020710;28;20139;-71
2023/09/28 07:19:46;;;;;;;15.88;5.97;;;16.90;99.90;;;;;;5037442;28;20053;-69
2023/09/28 07:22:22;;;;;;;15.23;5.72;;;16.90;99.90;;;;;;5070501;28;20037;-71
2023/09/28 07:24:48;;;;;;;15.57;5.53;;;17.00;99.90;;;;;;5037499;28;20041;-71
2023/09/28 07:27:14;;;;;;;16.90;6.00;;;17.00;99.90;;;;;;5054038;28;20555;-71
2023/09/28 07:29:40;;;;;;;18.40;5.78;;;17.10;99.90;;;;;;5037481;28;20037;-71
2023/09/28 07:32:08;;;;;;;16.33;5.20;;;17.10;99.90;;;;;;5053557;28;20090;-71
2023/09/28 07:34:35;;;;;;;17.10;5.60;;;17.20;99.90;;;;;;5053870;28;20120;-71
2023/09/28 07:37:01;;;;;;;19.20;5.72;;;17.20;99.90;;;;;;5053991;28;20053;-71
2023/09/28 07:39:27;;;;;;;17.85;5.38;;;17.30;99.90;;;;;;5037522;28;20048;-70
2023/09/28 07:41:53;;;;;;;18.45;5.30;;;17.30;99.90;;;;;;5054144;28;20047;-71
2023/09/28 07:44:19;;;;;;;16.50;5.00;;;17.30;99.90;;;;;;5037370;28;20040;-70
2023/09/28 07:46:46;;;;;;;23.33;5.82;;;17.40;99.90;;;;;;5037545;28;20040;-70
2023/09/28 07:49:14;;;;;;;21.35;5.50;;;17.40;99.90;;;;;;5071337;28;20370;-71
2023/09/28 07:51:43;;;;;;;23.90;5.47;;;17.40;99.90;;;;;;5055088;28;20080;-70
2023/09/28 07:54:09;;;;;;;21.33;5.32;;;17.50;99.90;;;;;;5038878;28;20124;-66
2023/09/28 07:56:35;;;;;;;18.88;5.43;;;17.50;99.90;;;;;;5036927;28;20442;-66
2023/09/28 07:59:01;;;;;;;21.38;5.50;;;17.60;99.90;;;;;;5053241;28;20080;-65
2023/09/28 08:01:26;;;;;;;18.67;5.38;;;17.60;99.90;;;;;;5053434;28;20041;-64
2023/09/28 08:03:53;;;;;;;20.27;5.20;;;17.70;99.90;;;;;;5036668;28;20037;-66
2023/09/28 08:06:20;;;;;;;23.75;5.50;;;17.80;99.90;;;;;;5052927;28;20045;-65
2023/09/28 08:08:46;;;;;;;18.00;4.95;;;17.80;99.90;;;;;;5036622;28;20122;-65
2023/09/28 08:11:13;;;;;;;23.50;5.05;;;17.90;99.90;;;;;;5036611;28;20044;-65
2023/09/28 08:13:39;;;;;;;19.70;5.00;;;17.90;99.90;;;;;;5052747;28;20037;-66
2023/09/28 08:16:04;;;;;;;20.83;5.20;;;18.00;99.90;;;;;;5052773;28;20040;-65
2023/09/28 08:18:30;;;;;;;23.63;5.53;;;18.10;99.90;;;;;;5036047;28;20485;-66
2023/09/28 08:20:59;;;;;;;18.73;5.32;;;18.20;99.90;;;;;;5036208;28;20040;-66
2023/09/28 08:23:26;;;;;;;20.30;5.30;;;18.20;99.90;;;;;;5068327;28;20049;-66
2023/09/28 08:25:52;;;;;;;17.95;5.10;;;18.40;99.90;;;;;;5035994;28;20044;-66
2023/09/28 08:28:17;;;;;;;20.67;5.25;;;18.50;99.90;;;;;;5035997;28;20128;-66
2023/09/28 08:30:43;;;;;;;24.20;5.63;;;18.60;99.90;;;;;;5052569;28;20041;-66
2023/09/28 08:33:10;;;;;;;19.77;5.25;;;18.60;99.90;;;;;;5019419;28;20036;-66
2023/09/28 08:35:36;;;;;;;18.88;5.30;;;18.70;99.90;;;;;;5052323;28;20074;-65
2023/09/28 08:38:03;;;;;;;21.30;5.20;;;18.80;99.90;;;;;;5035804;28;20052;-65
2023/09/28 08:40:30;;;;;;;23.90;5.53;;;18.80;99.90;;;;;;5052295;28;20112;-65
2023/09/28 08:43:03;;;;;;;20.50;5.10;;;18.90;99.90;;;;;;5052543;28;20174;-65
2023/09/28 08:45:33;;;;;;;22.60;5.90;;;19.10;99.90;;;;;;5035726;28;20037;-66
2023/09/28 08:48:01;;;;;;;20.05;5.35;;;19.10;99.90;;;;;;5052320;28;20068;-65
2023/09/28 08:50:35;;;;;;;17.42;5.35;;;19.20;99.90;;;;;;5052383;28;20496;-66
2023/09/28 08:53:04;;;;;;;17.00;4.95;;;19.30;99.90;;;;;;5019478;28;20076;-66
2023/09/28 08:55:34;;;;;;;20.08;5.28;;;19.40;99.90;;;;;;5051968;28;20076;-66
2023/09/28 08:58:02;;;;;;;19.83;5.47;;;19.40;99.90;;;;;;5053302;28;20095;-66
2023/09/28 09:00:29;;;;;;;21.55;5.03;;;19.60;99.90;;;;;;5052244;28;20417;-66
2023/09/28 09:02:58;;;;;;;21.27;5.00;;;19.60;99.90;;;;;;5035824;28;20529;-65
2023/09/28 09:05:29;;;;;;;21.02;5.00;;;19.90;99.90;;;;;;5068851;28;20040;-71
2023/09/28 09:07:58;;;;;;;21.40;4.80;;;20.00;99.90;;;;;;5052376;28;20077;-71
2023/09/28 09:10:27;;;;;;;20.13;4.90;;;20.10;99.90;;;;;;5052621;28;20033;-71
2023/09/28 09:12:53;;;;;;;22.40;5.18;;;20.10;99.90;;;;;;5052663;28;20489;-70
2023/09/28 09:15:20;;;;;;;21.92;4.85;;;20.10;99.90;;;;;;5035532;28;20052;-70
2023/09/28 09:17:46;;;;;;;24.17;5.28;;;20.10;99.90;;;;;;5052143;28;20060;-71
2023/09/28 09:20:33;;;;;;;19.90;5.18;;;20.00;99.90;;;;;;5019550;28;20458;-70
2023/09/28 09:23:12;;;;;;;22.95;5.00;;;20.00;99.90;;;;;;5051789;28;20079;-70
2023/09/28 09:25:47;;;;;;;23.67;5.43;;;20.10;99.90;;;;;;5068706;28;20053;-71
2023/09/28 09:28:29;;;;;;;23.27;5.28;;;20.10;99.90;;;;;;5051999;28;20072;-70
2023/09/28 09:30:56;;;;;;;19.50;5.50;;;20.10;99.90;;;;;;5052297;28;20083;-70
2023/09/28 09:33:22;;;;;;;19.67;4.82;;;20.20;99.90;;;;;;5068812;28;20047;-71
2023/09/28 09:35:50;;;;;;;24.38;5.57;;;20.10;99.90;;;;;;5038626;28;20060;-71
2023/09/28 09:38:28;;;;;;;22.67;5.03;;;20.10;99.90;;;;;;5039921;28;20044;-71
2023/09/28 09:41:01;;;;;;;21.33;5.25;;;20.10;99.90;;;;;;5056161;28;20032;-70
2023/09/28 09:43:41;;;;;;;21.08;5.20;;;20.10;99.90;;;;;;5039472;28;20122;-70
2023/09/28 09:46:16;;;;;;;20.20;5.63;;;20.10;99.90;;;;;;5027106;28;20049;-71
2023/09/28 09:48:43;;;;;;;21.88;5.28;;;20.10;99.90;;;;;;5055986;28;20090;-71
2023/09/28 09:51:15;;;;;;;22.90;5.47;;;20.00;99.90;;;;;;5055714;28;20039;-72
2023/09/28 09:53:49;;;;;;;22.17;5.18;;;19.90;99.90;;;;;;5056141;28;20072;-71
2023/09/28 09:56:15;;;;;;;22.80;4.72;;;19.80;99.90;;;;;;5039137;28;20037;-71
2023/09/28 09:58:47;;;;;;;22.70;5.60;;;19.70;99.90;;;;;;5056933;28;20102;-71
2023/09/28 10:01:17;;;;;;;22.02;5.30;;;19.70;99.90;;;;;;5055693;28;20047;-71
2023/09/28 10:03:47;;;;;;;19.63;4.97;;;19.60;99.90;;;;;;5039548;28;20037;-71
2023/09/28 10:06:16;;;;;;;22.45;5.13;;;19.60;99.90;;;;;;5039162;28;20036;-71
2023/09/28 10:08:45;;;;;;;20.85;4.95;;;19.60;99.90;;;;;;5038763;28;20049;-71
2023/09/28 10:11:12;;;;;;;21.92;5.05;;;19.60;99.90;;;;;;5039132;28;20120;-71
2023/09/28 10:13:39;;;;;;;22.15;4.65;;;19.60;99.90;;;;;;5055436;28;20044;-72
2023/09/28 10:16:07;;;;;;;21.40;5.03;;;19.60;99.90;;;;;;5038636;28;20036;-66
2023/09/28 10:18:37;;;;;;;22.88;5.32;;;19.60;99.90;;;;;;5038134;28;20053;-66
2023/09/28 10:21:03;;;;;;;25.98;5.28;;;19.70;99.90;;;;;;5038525;28;20041;-67
2023/09/28 10:23:30;;;;;;;22.65;5.05;;;20.00;99.90;;;;;;5055182;28;20052;-67
2023/09/28 10:26:06;;;;;;;20.70;4.95;;;20.40;99.90;;;;;;5055068;28;20124;-67
2023/09/28 10:28:35;;;;;;;22.55;4.88;;;20.70;99.90;;;;;;5038205;28;20099;-67
2023/09/28 10:31:15;;;;;;;16.98;4.95;;;20.80;99.90;;;;;;5022073;28;20044;-66
2023/09/28 10:34:03;;;;;;;19.27;4.65;;;20.80;99.90;;;;;;5038277;28;20041;-66
2023/09/28 10:36:30;;;;;;;23.45;5.32;;;20.80;99.90;;;;;;5038140;28;20125;-66
2023/09/28 10:39:14;;;;;;;21.63;4.70;;;20.80;99.90;;;;;;5037889;28;20049;-66
2023/09/28 10:41:49;;;;;;;20.98;4.80;;;20.80;99.90;;;;;;5021981;28;20051;-67
2023/09/28 10:44:17;;;;;;;24.75;4.95;;;20.90;99.90;;;;;;5055944;28;20115;-66
2023/09/28 10:46:48;;;;;;;21.88;4.97;;;21.10;99.90;;;;;;5036972;28;20044;-65
2023/09/28 10:49:21;;;;;;;22.45;4.80;;;21.20;99.90;;;;;;5056012;28;20040;-66
2023/09/28 10:51:47;;;;;;;17.90;4.30;;;21.30;99.90;;;;;;5054559;28;20077;-66
2023/09/28 10:54:13;;;;;;;21.65;4.85;;;21.30;99.90;;;;;;5054495;28;20085;-66
2023/09/28 10:56:39;;;;;;;21.23;4.95;;;21.20;99.90;;;;;;5055810;28;20037;-66
2023/09/28 10:59:11;;;;;;;23.65;4.90;;;21.30;99.90;;;;;;5037883;28;20036;-66
2023/09/28 11:01:45;;;;;;;19.13;4.70;;;21.30;99.90;;;;;;5054252;28;20041;-67
2023/09/28 11:04:14;;;;;;;20.20;4.50;;;21.30;99.90;;;;;;5021681;28;20055;-67
2023/09/28 11:06:44;;;;;;;20.67;4.70;;;21.20;99.90;;;;;;5037657;28;20037;-65
2023/09/28 11:09:13;;;;;;;23.33;4.80;;;21.10;99.90;;;;;;5037572;28;20037;-66
2023/09/28 11:11:43;;;;;;;25.55;4.93;;;21.10;99.90;;;;;;5037871;28;20044;-66
2023/09/28 11:14:10;;;;;;;23.60;4.63;;;21.20;99.90;;;;;;5037358;28;20043;-65
2023/09/28 11:16:41;;;;;;;21.73;4.85;;;21.30;99.90;;;;;;5037383;28;20041;-66
2023/09/28 11:19:09;;;;;;;20.33;5.18;;;21.50;99.90;;;;;;5053926;28;20068;-65
2023/09/28 11:21:35;;;;;;;17.50;4.40;;;21.50;99.90;;;;;;5037319;28;20095;-65
2023/09/28 11:24:04;;;;;;;20.85;4.93;;;21.60;99.90;;;;;;5053835;28;20033;-69
2023/09/28 11:26:31;;;;;;;23.27;5.20;;;21.60;99.90;;;;;;5021689;28;20041;-65
2023/09/28 11:28:58;;;;;;;19.05;4.53;;;21.60;99.90;;;;;;5021050;28;20389;-66
2023/09/28 11:31:25;;;;;;;22.77;4.45;;;21.60;99.90;;;;;;5036984;28;20130;-66
2023/09/28 11:33:52;;;;;;;23.85;4.95;;;21.40;99.90;;;;;;5037446;28;20037;-66
2023/09/28 11:36:22;;;;;;;20.13;4.57;;;21.30;99.90;;;;;;5037396;28;20505;-65
2023/09/28 11:38:49;;;;;;;19.77;4.30;;;21.30;99.90;;;;;;5036844;28;20132;-66
2023/09/28 11:41:16;;;;;;;20.70;4.70;;;21.20;99.90;;;;;;5053759;28;20489;-67
2023/09/28 11:43:46;;;;;;;22.35;4.63;;;21.20;99.90;;;;;;5037124;28;20045;-68
2023/09/28 11:46:17;;;;;;;15.70;3.92;;;21.20;99.90;;;;;;5053681;28;20051;-66
2023/09/28 11:49:04;;;;;;;18.80;4.35;;;21.30;99.90;;;;;;5036649;28;20171;-67
2023/09/28 11:51:38;;;;;;;20.60;4.72;;;21.30;99.90;;;;;;5053486;28;20087;-65
2023/09/28 11:54:12;;;;;;;19.70;4.30;;;21.30;99.90;;;;;;5036688;28;20091;-66
2023/09/28 11:56:42;;;;;;;16.63;4.10;;;21.30;99.90;;;;;;5036541;28;20099;-66
2023/09/28 11:59:09;;;;;;;22.95;5.10;;;21.30;99.90;;;;;;5053115;28;20047;-66
2023/09/28 12:01:35;;;;;;;18.95;4.30;;;21.30;99.90;;;;;;5036704;28;20041;-66
2023/09/28 12:04:01;;;;;;;19.35;4.38;;;21.30;99.90;;;;;;5053356;28;20396;-66
2023/09/28 12:06:27;;;;;;;20.00;4.65;;;21.30;99.90;;;;;;5053295;28;20033;-66
2023/09/28 12:08:53;;;;;;;17.42;4.28;;;21.20;99.90;;;;;;5053010;28;20076;-67
2023/09/28 12:11:19;;;;;;;16.20;3.80;;;21.30;99.90;;;;;;5053179;28;20055;-67
2023/09/28 12:13:46;;;;;;;19.77;4.60;;;21.20;99.90;;;;;;5052947;28;20044;-65
2023/09/28 12:16:22;;;;;;;20.83;4.18;;;21.30;99.90;;;;;;5036868;28;20041;-65
2023/09/28 12:18:49;;;;;;;20.38;4.60;;;21.40;99.90;;;;;;5053702;28;20095;-66
2023/09/28 12:21:15;;;;;;;23.35;4.90;;;21.40;99.90;;;;;;5056338;28;20048;-66
2023/09/28 12:23:40;;;;;;;17.40;4.60;;;21.40;99.90;;;;;;5022926;28;20050;-66
2023/09/28 12:26:06;;;;;;;19.48;4.80;;;21.30;99.90;;;;;;5072461;28;20466;-66
2023/09/28 12:28:32;;;;;;;20.02;4.57;;;21.30;99.90;;;;;;5056156;28;20484;-67
2023/09/28 12:31:08;;;;;;;19.63;4.88;;;21.30;99.90;;;;;;5072411;28;20400;-67
2023/09/28 12:33:38;;;;;;;18.90;4.65;;;21.30;99.90;;;;;;5055839;28;20036;-67
2023/09/28 12:36:05;;;;;;;18.08;4.57;;;21.30;99.90;;;;;;5039301;28;20040;-68
2023/09/28 12:38:31;;;;;;;19.55;4.90;;;21.40;99.90;;;;;;5055950;28;20041;-71
2023/09/28 12:40:57;;;;;;;18.13;4.32;;;21.50;99.90;;;;;;5055455;28;20044;-66
2023/09/28 12:43:25;;;;;;;18.67;4.95;;;21.50;99.90;;;;;;5055773;28;20047;-66
2023/09/28 12:45:52;;;;;;;18.80;4.40;;;21.50;99.90;;;;;;5038871;28;20177;-66
2023/09/28 12:48:20;;;;;;;16.95;4.22;;;21.50;99.90;;;;;;5038666;28;20041;-67
2023/09/28 12:50:46;;;;;;;20.75;4.80;;;21.50;99.90;;;;;;5055674;28;20167;-65
2023/09/28 12:53:14;;;;;;;21.17;5.00;;;21.50;99.90;;;;;;5055482;28;20138;-66
2023/09/28 12:55:40;;;;;;;19.35;4.78;;;21.40;99.90;;;;;;5038961;28;20044;-69
2023/09/28 12:58:06;;;;;;;20.10;4.68;;;21.40;99.90;;;;;;5038528;28;20047;-66
2023/09/28 13:00:33;;;;;;;19.27;4.63;;;21.40;99.90;;;;;;5039157;28;20036;-66
2023/09/28 13:02:59;;;;;;;17.38;4.30;;;21.30;99.90;;;;;;5038767;28;20090;-65
2023/09/28 13:05:25;;;;;;;21.13;5.03;;;21.30;99.90;;;;;;5055579;28;20044;-66
2023/09/28 13:07:51;;;;;;;19.95;4.57;;;21.20;99.90;;;;;;5038737;28;20036;-66
2023/09/28 13:10:22;;;;;;;17.85;5.10;;;21.30;99.90;;;;;;5071240;28;20037;-67
2023/09/28 13:12:50;;;;;;;21.57;4.70;;;21.40;99.90;;;;;;5055975;28;20102;-66
2023/09/28 13:15:16;;;;;;;17.70;4.60;;;21.30;99.90;;;;;;5038800;28;20044;-66
2023/09/28 13:17:43;;;;;;;19.30;4.80;;;21.20;99.90;;;;;;5055426;28;20053;-66
2023/09/28 13:20:11;;;;;;;19.73;5.05;;;21.10;99.90;;;;;;5039690;28;20045;-66
2023/09/28 13:22:38;;;;;;;17.38;4.35;;;21.00;99.90;;;;;;5055596;28;20049;-67
2023/09/28 13:25:09;;;;;;;18.42;4.30;;;21.00;99.90;;;;;;5055478;28;20420;-66
2023/09/28 13:27:35;;;;;;;19.20;4.45;;;21.00;99.90;;;;;;5049956;28;20507;-66
2023/09/28 13:30:12;;;;;;;19.95;4.63;;;21.00;99.90;;;;;;5058409;28;20040;-66
2023/09/28 13:32:41;;;;;;;16.25;4.07;;;21.10;99.90;;;;;;5075253;28;20396;-68
2023/09/28 13:35:11;;;;;;;20.10;4.30;;;21.10;99.90;;;;;;5058478;28;20051;-66
2023/09/28 13:37:37;;;;;;;20.83;4.65;;;21.10;99.90;;;;;;5075064;28;20442;-66
2023/09/28 13:40:07;;;;;;;17.42;4.60;;;21.20;99.90;;;;;;5058495;28;20048;-66
2023/09/28 13:42:32;;;;;;;20.50;4.43;;;21.20;99.90;;;;;;5042794;28;20082;-67
2023/09/28 13:44:59;;;;;;;16.83;4.38;;;21.20;99.90;;;;;;5074971;28;20043;-67
2023/09/28 13:47:29;;;;;;;19.65;4.53;;;21.20;99.90;;;;;;5092203;28;20052;-65
2023/09/28 13:49:55;;;;;;;19.33;4.30;;;21.20;99.90;;;;;;5059271;28;20043;-66
2023/09/28 13:52:21;;;;;;;16.02;4.30;;;21.30;99.90;;;;;;5092420;28;20399;-67
2023/09/28 13:54:50;;;;;;;20.85;4.88;;;21.20;99.90;;;;;;5075415;28;20119;-67
2023/09/28 13:57:16;;;;;;;21.70;5.07;;;21.00;99.90;;;;;;5075417;28;20487;-66
2023/09/28 13:59:42;;;;;;;19.65;4.90;;;20.90;99.90;;;;;;5058348;28;20484;-67
2023/09/28 14:02:08;;;;;;;14.73;4.15;;;20.80;99.90;;;;;;5075079;28;20047;-66